Time;durP1;ratioP1;P1;durP2;ratioP2;P2;SDS_P1;SDS_P2;PMS_P1;PMS_P2;Temp;Humidity;BMP_temperature;BMP_pressure;BME280_temperature;BME280_humidity;BME280_pressure;Samples;Min_cycle;Max_cycle;Signal;HPM_P1;HPM_P2
2024/01/06 00:00:00;;;;;;;4.53;3.22;;;4.30;58.30;;;;;;5120592;27;20027;-72
2024/01/06 00:02:26;;;;;;;4.05;3.00;;;4.30;58.30;;;;;;5113320;28;20049;-73
2024/01/06 00:04:52;;;;;;;3.90;2.85;;;4.30;58.20;;;;;;5115778;27;20032;-73
2024/01/06 00:07:18;;;;;;;3.80;3.13;;;4.30;58.30;;;;;;5114913;28;20102;-73
2024/01/06 00:09:44;;;;;;;3.08;2.78;;;4.30;58.30;;;;;;5117899;27;20023;-72
2024/01/06 00:12:10;;;;;;;3.80;2.97;;;4.30;58.60;;;;;;5117071;27;20035;-73
2024/01/06 00:14:36;;;;;;;3.63;2.85;;;4.30;58.30;;;;;;5117696;27;20026;-73
2024/01/06 00:17:01;;;;;;;3.92;3.13;;;4.30;58.30;;;;;;5135749;27;20381;-72
2024/01/06 00:19:27;;;;;;;3.40;2.67;;;4.30;58.30;;;;;;5135263;27;20051;-72
2024/01/06 00:21:53;;;;;;;3.20;2.90;;;4.30;58.30;;;;;;5116953;27;20107;-72
2024/01/06 00:24:19;;;;;;;4.00;3.13;;;4.30;58.40;;;;;;5112611;27;20027;-73
2024/01/06 00:26:44;;;;;;;3.10;2.80;;;4.30;58.40;;;;;;5116553;27;20031;-72
2024/01/06 00:29:10;;;;;;;3.45;3.10;;;4.30;58.40;;;;;;5118016;27;20051;-72
2024/01/06 00:31:36;;;;;;;5.45;3.00;;;4.20;58.30;;;;;;5134143;27;20075;-72
2024/01/06 00:34:03;;;;;;;3.50;3.17;;;4.20;58.30;;;;;;5122734;27;20118;-75
2024/01/06 00:36:29;;;;;;;3.20;2.90;;;4.20;58.30;;;;;;5116035;27;20114;-73
2024/01/06 00:38:54;;;;;;;3.33;3.00;;;4.20;58.30;;;;;;5115322;27;20114;-71
2024/01/06 00:41:20;;;;;;;5.68;3.50;;;4.20;58.30;;;;;;5134283;27;20455;-72
2024/01/06 00:43:46;;;;;;;3.05;2.75;;;4.20;58.30;;;;;;5119468;27;20085;-72
2024/01/06 00:46:12;;;;;;;3.42;2.80;;;4.20;58.30;;;;;;5128592;27;20034;-72
2024/01/06 00:48:38;;;;;;;3.58;2.97;;;4.20;58.30;;;;;;5121025;27;20026;-72
2024/01/06 00:51:04;;;;;;;3.38;2.97;;;4.20;58.40;;;;;;5125726;27;20024;-72
2024/01/06 00:53:29;;;;;;;4.38;2.95;;;4.20;58.40;;;;;;5114146;28;20091;-71
2024/01/06 00:55:55;;;;;;;3.83;3.10;;;4.10;58.30;;;;;;5123848;27;20023;-73
2024/01/06 00:58:21;;;;;;;3.70;3.15;;;4.10;58.30;;;;;;5113881;27;20058;-72
2024/01/06 01:00:46;;;;;;;4.80;3.25;;;4.10;58.30;;;;;;5099622;28;20085;-72
2024/01/06 01:03:12;;;;;;;3.63;3.00;;;4.10;58.30;;;;;;5125647;27;20063;-72
2024/01/06 01:05:38;;;;;;;3.58;3.03;;;4.10;58.30;;;;;;5106888;27;20160;-72
2024/01/06 01:08:04;;;;;;;3.65;3.10;;;4.10;58.30;;;;;;5119496;27;20023;-74
2024/01/06 01:10:30;;;;;;;3.30;2.97;;;4.00;58.30;;;;;;5111847;28;20428;-72
2024/01/06 01:12:56;;;;;;;3.50;3.10;;;4.00;58.30;;;;;;5115570;28;20092;-71
2024/01/06 01:15:21;;;;;;;3.47;3.03;;;4.00;58.30;;;;;;5115124;28;20459;-73
2024/01/06 01:17:47;;;;;;;3.42;3.10;;;4.00;58.40;;;;;;5111232;28;20132;-73
2024/01/06 01:20:13;;;;;;;4.35;3.40;;;4.00;58.40;;;;;;5122261;28;20100;-72
2024/01/06 01:22:39;;;;;;;3.95;3.30;;;4.00;58.40;;;;;;5095841;28;20063;-74
2024/01/06 01:25:07;;;;;;;4.55;3.50;;;4.00;58.30;;;;;;5133151;28;20031;-72
2024/01/06 01:27:34;;;;;;;3.50;3.00;;;4.00;58.40;;;;;;5121244;28;20055;-72
2024/01/06 01:30:00;;;;;;;4.07;3.08;;;4.00;58.30;;;;;;5112661;28;20452;-72
2024/01/06 01:32:25;;;;;;;3.30;3.00;;;4.00;58.30;;;;;;5098544;28;20075;-72
2024/01/06 01:34:51;;;;;;;3.63;3.22;;;4.00;58.30;;;;;;5129882;27;20051;-72
2024/01/06 01:37:17;;;;;;;4.13;3.40;;;4.00;58.30;;;;;;5097612;28;20054;-72
2024/01/06 01:39:43;;;;;;;3.92;3.10;;;3.90;58.30;;;;;;5128518;28;20421;-72
2024/01/06 01:42:09;;;;;;;3.67;3.20;;;4.00;58.20;;;;;;5114610;28;20353;-73
2024/01/06 01:44:35;;;;;;;3.33;3.03;;;4.00;58.20;;;;;;5096742;28;20027;-73
2024/01/06 01:47:01;;;;;;;3.58;3.10;;;4.00;58.20;;;;;;5133991;27;20027;-72
2024/01/06 01:49:26;;;;;;;3.30;2.90;;;3.90;58.10;;;;;;5121891;27;20053;-72
2024/01/06 01:51:52;;;;;;;3.67;3.10;;;3.90;58.10;;;;;;5099573;28;20060;-71
2024/01/06 01:54:19;;;;;;;3.88;3.30;;;3.90;58.10;;;;;;5126247;27;20027;-73
2024/01/06 01:56:45;;;;;;;3.30;2.97;;;3.90;58.00;;;;;;5101052;28;20016;-72
2024/01/06 01:59:17;;;;;;;3.28;2.95;;;3.90;58.00;;;;;;5113492;28;20119;-71
2024/01/06 02:01:42;;;;;;;3.75;3.00;;;3.90;57.90;;;;;;5128668;28;20027;-72
2024/01/06 02:04:09;;;;;;;4.22;3.20;;;3.90;57.90;;;;;;5103570;28;20048;-71
2024/01/06 02:06:35;;;;;;;5.15;3.90;;;3.90;57.90;;;;;;5103045;28;20024;-72
2024/01/06 02:09:01;;;;;;;4.25;3.67;;;3.90;58.00;;;;;;5132589;27;20027;-71
2024/01/06 02:11:27;;;;;;;5.10;4.07;;;3.90;58.00;;;;;;5134499;27;20015;-71
2024/01/06 02:13:53;;;;;;;4.22;3.58;;;3.90;58.00;;;;;;5100380;28;20066;-71
2024/01/06 02:16:19;;;;;;;6.07;4.30;;;3.90;58.10;;;;;;5135448;27;20076;-74
2024/01/06 02:18:44;;;;;;;6.30;4.30;;;3.90;58.10;;;;;;5120277;27;20032;-72
2024/01/06 02:21:10;;;;;;;5.68;4.60;;;3.90;58.10;;;;;;5123779;27;20031;-71
2024/01/06 02:23:36;;;;;;;6.35;4.75;;;3.90;58.10;;;;;;5128774;27;20067;-73
2024/01/06 02:26:03;;;;;;;5.45;4.40;;;3.90;58.20;;;;;;5119490;27;20118;-73
2024/01/06 02:28:28;;;;;;;6.13;4.30;;;4.00;58.30;;;;;;5131755;27;20024;-73
2024/01/06 02:30:54;;;;;;;6.43;4.53;;;4.00;58.80;;;;;;5116984;28;20046;-74
2024/01/06 02:33:20;;;;;;;5.95;4.40;;;4.00;58.30;;;;;;5098414;28;20040;-74
2024/01/06 02:35:46;;;;;;;5.88;4.70;;;4.00;58.30;;;;;;5116721;28;20059;-73
2024/01/06 02:38:12;;;;;;;6.90;5.18;;;4.00;58.30;;;;;;5133517;27;20023;-72
2024/01/06 02:40:38;;;;;;;5.80;4.32;;;4.00;58.30;;;;;;5137275;27;20484;-73
2024/01/06 02:43:04;;;;;;;7.53;4.97;;;4.00;58.30;;;;;;5137493;27;20034;-73
2024/01/06 02:45:30;;;;;;;6.97;5.35;;;4.00;58.30;;;;;;5119091;27;20023;-73
2024/01/06 02:47:56;;;;;;;6.90;5.40;;;4.00;58.30;;;;;;5137030;27;20385;-73
2024/01/06 02:50:22;;;;;;;7.00;5.40;;;4.00;58.40;;;;;;5136899;27;20026;-72
2024/01/06 02:52:47;;;;;;;8.05;5.32;;;4.00;58.40;;;;;;5133673;27;20477;-72
2024/01/06 02:55:14;;;;;;;8.05;5.78;;;4.10;58.40;;;;;;5105219;28;20097;-72
2024/01/06 02:57:40;;;;;;;7.82;5.50;;;4.10;58.50;;;;;;5102200;28;20031;-72
2024/01/06 03:00:07;;;;;;;8.55;6.28;;;4.10;58.40;;;;;;5136009;27;20038;-72
2024/01/06 03:02:35;;;;;;;9.40;6.22;;;4.10;58.40;;;;;;5091834;28;20043;-72
2024/01/06 03:05:01;;;;;;;8.38;5.50;;;4.10;58.40;;;;;;5105990;27;20461;-73
2024/01/06 03:07:27;;;;;;;8.65;5.90;;;4.10;58.40;;;;;;5116556;27;20030;-72
2024/01/06 03:09:53;;;;;;;8.52;5.50;;;4.20;58.40;;;;;;5137019;27;20449;-72
2024/01/06 03:12:18;;;;;;;7.28;4.97;;;4.20;58.30;;;;;;5134587;27;20028;-72
2024/01/06 03:14:44;;;;;;;8.90;5.70;;;4.20;58.30;;;;;;5115941;28;20385;-73
2024/01/06 03:17:10;;;;;;;8.68;5.50;;;4.20;58.30;;;;;;5109880;28;20035;-73
2024/01/06 03:19:36;;;;;;;7.75;5.22;;;4.20;58.30;;;;;;5111672;27;20031;-72
2024/01/06 03:22:02;;;;;;;12.15;6.32;;;4.20;58.80;;;;;;5117169;27;20385;-73
2024/01/06 03:24:28;;;;;;;8.43;6.25;;;4.30;58.20;;;;;;5117589;27;20024;-72
2024/01/06 03:26:54;;;;;;;10.93;6.85;;;4.30;58.20;;;;;;5128244;27;20480;-71
2024/01/06 03:29:19;;;;;;;10.32;6.95;;;4.30;58.20;;;;;;5114673;28;20032;-72
2024/01/06 03:31:46;;;;;;;11.38;7.75;;;4.30;58.20;;;;;;5097480;28;20388;-72
2024/01/06 03:34:11;;;;;;;11.70;7.78;;;4.30;58.20;;;;;;5128578;27;20390;-72
2024/01/06 03:36:40;;;;;;;13.10;7.60;;;4.30;58.20;;;;;;5120074;27;20027;-73
2024/01/06 03:39:07;;;;;;;13.40;8.40;;;4.30;58.20;;;;;;5131813;27;20079;-73
2024/01/06 03:41:33;;;;;;;12.35;8.98;;;4.30;58.10;;;;;;5118078;27;20434;-71
2024/01/06 03:43:59;;;;;;;12.35;8.18;;;4.30;58.10;;;;;;5135993;27;20076;-72
2024/01/06 03:46:25;;;;;;;13.73;9.07;;;4.30;58.10;;;;;;5122226;27;20372;-74
2024/01/06 03:48:51;;;;;;;13.23;9.20;;;4.40;58.10;;;;;;5101663;27;20106;-71
2024/01/06 03:51:16;;;;;;;11.57;8.48;;;4.40;58.10;;;;;;5135441;27;20469;-73
2024/01/06 03:53:42;;;;;;;12.23;8.18;;;4.40;58.10;;;;;;5112074;28;20207;-71
2024/01/06 03:56:08;;;;;;;12.27;9.30;;;4.40;58.10;;;;;;5097033;28;20060;-71
2024/01/06 03:58:34;;;;;;;13.23;9.00;;;4.40;58.10;;;;;;5122545;27;20500;-72
2024/01/06 04:01:00;;;;;;;13.20;8.93;;;4.40;58.10;;;;;;5127837;27;20030;-71
2024/01/06 04:03:26;;;;;;;11.60;8.23;;;4.40;58.10;;;;;;5130335;27;20039;-71
2024/01/06 04:05:52;;;;;;;10.52;7.03;;;4.40;58.10;;;;;;5117362;27;20027;-72
2024/01/06 04:08:18;;;;;;;10.73;7.72;;;4.40;58.10;;;;;;5116606;27;20118;-72
2024/01/06 04:10:44;;;;;;;9.95;7.25;;;4.50;58.10;;;;;;5101190;27;20115;-72
2024/01/06 04:13:12;;;;;;;11.15;6.35;;;4.50;58.10;;;;;;5135344;27;20039;-71
2024/01/06 04:15:38;;;;;;;8.95;6.50;;;4.50;58.00;;;;;;5134526;27;20030;-73
2024/01/06 04:18:05;;;;;;;9.88;6.47;;;4.50;58.00;;;;;;5127117;27;20027;-72
2024/01/06 04:20:32;;;;;;;6.65;4.78;;;4.50;58.00;;;;;;5101382;27;20168;-72
2024/01/06 04:22:58;;;;;;;7.40;5.45;;;4.50;58.00;;;;;;5109224;28;20019;-72
2024/01/06 04:25:24;;;;;;;7.30;5.30;;;4.50;58.00;;;;;;5097650;28;20054;-72
2024/01/06 04:27:50;;;;;;;6.43;4.85;;;4.50;57.90;;;;;;5104791;28;20076;-73
2024/01/06 04:30:17;;;;;;;7.40;4.63;;;4.50;57.90;;;;;;5107107;27;20027;-71
2024/01/06 04:32:43;;;;;;;6.82;4.60;;;4.50;57.90;;;;;;5115068;27;20039;-72
2024/01/06 04:35:09;;;;;;;6.88;5.00;;;4.50;57.80;;;;;;5130999;27;20023;-73
2024/01/06 04:37:35;;;;;;;7.40;5.00;;;4.50;57.80;;;;;;5132054;27;20023;-72
2024/01/06 04:40:01;;;;;;;7.80;5.07;;;4.50;57.80;;;;;;5116142;27;20107;-73
2024/01/06 04:42:27;;;;;;;7.60;5.35;;;4.50;57.80;;;;;;5099425;28;20030;-72
2024/01/06 04:44:53;;;;;;;9.40;5.78;;;4.50;57.80;;;;;;5115971;27;20487;-72
2024/01/06 04:47:18;;;;;;;9.48;6.25;;;4.50;57.80;;;;;;5114783;27;20105;-72
2024/01/06 04:49:45;;;;;;;9.05;5.80;;;4.40;57.70;;;;;;5124636;27;20056;-71
2024/01/06 04:52:11;;;;;;;11.25;5.10;;;4.40;57.70;;;;;;5107703;27;20034;-72
2024/01/06 04:54:37;;;;;;;9.27;5.05;;;4.40;57.70;;;;;;5119364;27;20397;-72
2024/01/06 04:57:04;;;;;;;8.45;5.45;;;4.40;57.70;;;;;;5126047;27;20023;-71
2024/01/06 04:59:30;;;;;;;8.50;4.95;;;4.40;57.70;;;;;;5121208;27;20035;-72
2024/01/06 05:01:57;;;;;;;8.00;5.18;;;4.40;57.70;;;;;;5135319;27;20068;-72
2024/01/06 05:04:23;;;;;;;7.65;4.65;;;4.40;57.80;;;;;;5129749;27;20058;-73
2024/01/06 05:06:49;;;;;;;7.80;5.10;;;4.40;57.70;;;;;;5124864;27;20036;-71
2024/01/06 05:09:15;;;;;;;8.10;5.25;;;4.50;57.70;;;;;;5114723;28;20035;-72
2024/01/06 05:11:43;;;;;;;8.20;4.97;;;4.40;57.70;;;;;;5103126;28;20032;-72
2024/01/06 05:14:09;;;;;;;7.28;4.75;;;4.50;57.80;;;;;;5116292;28;20451;-72
2024/01/06 05:16:35;;;;;;;6.95;5.03;;;4.50;57.70;;;;;;5133985;27;20103;-72
2024/01/06 05:19:00;;;;;;;6.88;5.10;;;4.50;57.70;;;;;;5119071;28;20462;-73
2024/01/06 05:21:27;;;;;;;7.30;4.93;;;4.50;57.60;;;;;;5118574;28;20035;-72
2024/01/06 05:23:52;;;;;;;6.65;4.75;;;4.50;57.60;;;;;;5126026;28;20027;-73
2024/01/06 05:26:18;;;;;;;5.30;4.30;;;4.50;57.60;;;;;;5099971;28;20027;-72
2024/01/06 05:28:44;;;;;;;6.45;4.68;;;4.50;57.70;;;;;;5128616;28;20027;-71
2024/01/06 05:31:10;;;;;;;5.75;4.47;;;4.50;57.70;;;;;;5105967;28;20032;-71
2024/01/06 05:33:36;;;;;;;5.70;4.68;;;4.50;57.60;;;;;;5126576;27;20498;-72
2024/01/06 05:36:02;;;;;;;5.40;4.38;;;4.50;57.60;;;;;;5121151;28;20026;-73
2024/01/06 05:38:27;;;;;;;5.65;4.45;;;4.50;57.60;;;;;;5125136;27;20039;-73
2024/01/06 05:40:54;;;;;;;6.22;4.80;;;4.50;57.60;;;;;;5109064;28;20024;-72
2024/01/06 05:43:19;;;;;;;5.85;4.95;;;4.50;57.60;;;;;;5127837;28;20035;-71
2024/01/06 05:45:45;;;;;;;6.40;4.43;;;4.50;57.50;;;;;;5134248;28;20108;-71
2024/01/06 05:48:11;;;;;;;4.68;4.07;;;4.40;57.50;;;;;;5133965;27;20020;-72
2024/01/06 05:50:39;;;;;;;6.10;4.80;;;4.50;57.60;;;;;;5118261;27;20030;-71
2024/01/06 05:53:05;;;;;;;5.53;4.18;;;4.40;57.50;;;;;;5119653;27;20035;-73
2024/01/06 05:55:31;;;;;;;5.70;3.97;;;4.40;57.50;;;;;;5101369;28;20050;-71
2024/01/06 05:57:56;;;;;;;4.45;3.95;;;4.50;57.60;;;;;;5100991;28;20055;-72
2024/01/06 06:00:22;;;;;;;5.57;4.40;;;4.50;57.50;;;;;;5127858;27;20041;-72
2024/01/06 06:02:48;;;;;;;5.80;4.15;;;4.40;57.40;;;;;;5103119;28;20385;-73
2024/01/06 06:05:14;;;;;;;6.00;4.05;;;4.50;57.40;;;;;;5114970;27;20450;-72
2024/01/06 06:07:40;;;;;;;4.70;3.67;;;4.40;57.40;;;;;;5113524;28;20050;-72
2024/01/06 06:10:08;;;;;;;5.80;4.20;;;4.40;57.40;;;;;;5112074;27;20026;-73
2024/01/06 06:12:34;;;;;;;4.80;3.58;;;4.50;57.40;;;;;;5109964;28;20036;-73
2024/01/06 06:15:00;;;;;;;5.93;3.95;;;4.40;57.40;;;;;;5116031;27;20483;-73
2024/01/06 06:17:26;;;;;;;5.97;3.97;;;4.40;57.40;;;;;;5113991;28;20032;-72
2024/01/06 06:19:52;;;;;;;5.32;3.90;;;4.40;57.40;;;;;;5125485;27;20079;-72
2024/01/06 06:22:18;;;;;;;4.80;3.63;;;4.40;57.40;;;;;;5136995;27;20031;-74
2024/01/06 06:24:43;;;;;;;6.05;3.78;;;4.40;57.40;;;;;;5121732;27;20173;-72
2024/01/06 06:27:09;;;;;;;4.20;3.45;;;4.40;57.40;;;;;;5119121;27;20030;-73
2024/01/06 06:29:35;;;;;;;5.43;3.63;;;4.40;57.40;;;;;;5129888;27;20110;-72
2024/01/06 06:32:00;;;;;;;4.68;3.78;;;4.40;57.40;;;;;;5114023;28;20023;-72
2024/01/06 06:34:26;;;;;;;4.95;3.75;;;4.40;57.40;;;;;;5105580;27;20053;-72
2024/01/06 06:36:52;;;;;;;4.40;3.63;;;4.40;57.40;;;;;;5134540;27;20027;-72
2024/01/06 06:39:18;;;;;;;6.88;4.45;;;4.40;57.40;;;;;;5129179;27;20047;-72
2024/01/06 06:41:44;;;;;;;6.55;4.35;;;4.40;57.40;;;;;;5117324;27;20023;-73
2024/01/06 06:44:10;;;;;;;6.55;4.63;;;4.40;57.30;;;;;;5120626;27;20080;-71
2024/01/06 06:46:36;;;;;;;6.75;4.50;;;4.40;57.30;;;;;;5103320;27;20031;-72
2024/01/06 06:49:02;;;;;;;6.28;4.40;;;4.40;57.30;;;;;;5106568;28;20363;-71
2024/01/06 06:51:30;;;;;;;7.90;4.97;;;4.40;57.20;;;;;;5131496;27;20054;-72
2024/01/06 06:53:56;;;;;;;8.55;5.65;;;4.50;57.20;;;;;;5106940;28;20050;-73
2024/01/06 06:56:22;;;;;;;9.45;5.75;;;4.50;57.20;;;;;;5118052;27;20028;-72
2024/01/06 06:58:48;;;;;;;11.00;6.60;;;4.50;57.20;;;;;;5115861;27;20054;-70
2024/01/06 07:01:16;;;;;;;9.60;6.05;;;4.50;57.20;;;;;;5124972;27;21510;-72
2024/01/06 07:03:42;;;;;;;10.27;5.85;;;4.50;57.20;;;;;;5124870;27;20051;-71
2024/01/06 07:06:11;;;;;;;10.20;6.53;;;4.50;57.20;;;;;;5135191;27;20088;-72
2024/01/06 07:08:38;;;;;;;8.60;6.13;;;4.50;57.20;;;;;;5104288;28;20115;-71
2024/01/06 07:11:04;;;;;;;11.32;6.43;;;4.50;57.20;;;;;;5116489;28;20111;-72
2024/01/06 07:13:30;;;;;;;8.35;5.50;;;4.60;57.20;;;;;;5097742;28;20477;-72
2024/01/06 07:15:55;;;;;;;9.65;5.90;;;4.60;57.20;;;;;;5116250;28;20103;-70
2024/01/06 07:18:23;;;;;;;10.30;6.05;;;4.60;57.10;;;;;;5097848;28;20031;-70
2024/01/06 07:20:49;;;;;;;9.20;5.80;;;4.60;57.10;;;;;;5116039;28;20142;-71
2024/01/06 07:23:14;;;;;;;7.70;5.00;;;4.60;57.10;;;;;;5097771;28;20063;-71
2024/01/06 07:25:40;;;;;;;8.57;5.43;;;4.60;57.10;;;;;;5100613;27;20079;-70
2024/01/06 07:28:08;;;;;;;9.35;5.20;;;4.70;57.10;;;;;;5108132;28;20030;-70
2024/01/06 07:30:34;;;;;;;8.00;4.93;;;4.70;57.10;;;;;;5097490;28;20031;-71
2024/01/06 07:33:00;;;;;;;7.40;5.38;;;4.70;57.00;;;;;;5116786;27;20032;-73
2024/01/06 07:35:26;;;;;;;8.80;5.25;;;4.70;57.00;;;;;;5097269;28;20028;-77
2024/01/06 07:37:52;;;;;;;8.40;5.63;;;4.80;57.00;;;;;;5098580;28;20035;-81
2024/01/06 07:40:18;;;;;;;9.25;5.00;;;4.80;57.00;;;;;;5110874;27;20019;-79
2024/01/06 07:42:44;;;;;;;8.38;5.28;;;4.80;56.90;;;;;;5117982;27;20372;-78
2024/01/06 07:45:10;;;;;;;7.57;4.93;;;4.80;56.90;;;;;;5117910;27;20026;-79
2024/01/06 07:47:36;;;;;;;8.05;5.55;;;4.80;56.80;;;;;;5117588;27;20062;-79
2024/01/06 07:50:04;;;;;;;7.03;4.88;;;4.80;56.90;;;;;;5136339;27;20377;-78
2024/01/06 07:52:30;;;;;;;6.78;5.13;;;4.90;56.90;;;;;;5136633;27;20023;-80
2024/01/06 07:54:56;;;;;;;10.48;6.18;;;4.90;56.90;;;;;;5129151;27;20050;-80
2024/01/06 07:57:22;;;;;;;9.65;6.53;;;4.90;56.90;;;;;;5115490;27;20462;-74
2024/01/06 07:59:47;;;;;;;9.77;6.18;;;5.00;56.90;;;;;;5113723;28;20043;-75
2024/01/06 08:02:13;;;;;;;10.13;6.22;;;5.00;56.90;;;;;;5115368;28;20027;-75
2024/01/06 08:04:39;;;;;;;9.75;6.40;;;5.00;56.80;;;;;;5113937;27;20386;-77
2024/01/06 08:07:05;;;;;;;9.20;5.95;;;5.00;56.80;;;;;;5130449;27;20053;-76
2024/01/06 08:09:31;;;;;;;101.38;77.22;;;5.00;56.90;;;;;;5130258;27;20148;-77
2024/01/06 08:11:56;;;;;;;91.90;66.68;;;5.00;57.30;;;;;;5114261;28;20028;-75
2024/01/06 08:14:22;;;;;;;77.78;54.72;;;5.10;57.80;;;;;;5104761;27;20378;-75
2024/01/06 08:16:48;;;;;;;84.47;54.33;;;5.10;57.80;;;;;;5099290;27;20031;-75
2024/01/06 08:19:14;;;;;;;61.20;41.50;;;5.20;57.70;;;;;;5119204;27;20462;-74
2024/01/06 08:21:40;;;;;;;45.65;30.73;;;5.20;57.60;;;;;;5114819;28;20028;-75
2024/01/06 08:24:06;;;;;;;41.45;25.08;;;5.30;57.50;;;;;;5096695;28;20350;-75
2024/01/06 08:26:32;;;;;;;30.25;20.55;;;5.30;57.40;;;;;;5130900;27;20038;-76
2024/01/06 08:28:58;;;;;;;23.15;14.52;;;5.30;57.30;;;;;;5117030;27;20035;-75
2024/01/06 08:31:23;;;;;;;19.23;11.05;;;5.30;57.20;;;;;;5134994;27;20061;-76
2024/01/06 08:33:49;;;;;;;14.40;9.38;;;5.30;57.20;;;;;;5116482;27;20036;-76
2024/01/06 08:36:15;;;;;;;14.70;9.23;;;5.40;57.20;;;;;;5134933;27;20031;-76
2024/01/06 08:38:41;;;;;;;13.63;8.80;;;5.40;57.10;;;;;;5116527;27;20030;-76
2024/01/06 08:41:07;;;;;;;13.35;7.85;;;5.40;57.00;;;;;;5135704;27;20019;-75
2024/01/06 08:43:33;;;;;;;12.20;7.78;;;5.40;57.00;;;;;;5134566;27;20083;-75
2024/01/06 08:46:00;;;;;;;11.98;7.10;;;5.40;57.00;;;;;;5134941;27;20477;-76
2024/01/06 08:48:26;;;;;;;11.48;7.03;;;5.50;57.00;;;;;;5116322;27;20381;-77
2024/01/06 08:50:52;;;;;;;10.20;6.88;;;5.50;57.00;;;;;;5134970;27;20024;-77
2024/01/06 08:53:17;;;;;;;10.05;6.32;;;5.50;57.00;;;;;;5116467;27;20039;-74
2024/01/06 08:55:43;;;;;;;9.25;6.47;;;5.50;56.90;;;;;;5121286;27;20035;-76
2024/01/06 08:58:09;;;;;;;11.35;5.72;;;5.50;56.90;;;;;;5114373;28;20035;-75
2024/01/06 09:00:34;;;;;;;8.88;5.72;;;5.60;56.90;;;;;;5116024;28;20454;-76
2024/01/06 09:03:00;;;;;;;8.05;4.90;;;5.60;56.80;;;;;;5114104;28;20094;-75
2024/01/06 09:05:26;;;;;;;7.75;5.53;;;5.60;56.70;;;;;;5114103;28;20055;-75
2024/01/06 09:07:52;;;;;;;9.15;6.10;;;5.70;56.70;;;;;;5114320;28;20020;-75
2024/01/06 09:10:19;;;;;;;7.97;5.07;;;5.80;56.60;;;;;;5114109;28;20462;-75
2024/01/06 09:12:44;;;;;;;9.20;5.63;;;5.80;56.60;;;;;;5114214;28;20024;-75
2024/01/06 09:15:11;;;;;;;7.38;5.32;;;5.80;56.50;;;;;;5114096;28;20023;-76
2024/01/06 09:17:36;;;;;;;7.30;4.88;;;5.80;56.40;;;;;;5112843;28;20119;-75
2024/01/06 09:20:02;;;;;;;7.97;4.97;;;5.90;56.40;;;;;;5113345;28;20036;-76
2024/01/06 09:22:29;;;;;;;6.68;4.90;;;5.90;56.40;;;;;;5114331;28;20490;-77
2024/01/06 09:24:54;;;;;;;6.35;4.43;;;5.90;56.30;;;;;;5119181;27;20051;-77
2024/01/06 09:27:20;;;;;;;5.85;4.20;;;5.90;56.20;;;;;;5124907;27;20024;-74
2024/01/06 09:29:46;;;;;;;6.15;4.15;;;6.00;56.20;;;;;;5118079;28;20035;-75
2024/01/06 09:32:13;;;;;;;5.30;4.13;;;6.00;56.10;;;;;;5117004;28;20034;-75
2024/01/06 09:34:39;;;;;;;5.07;4.05;;;6.00;56.20;;;;;;5117986;28;20526;-77
2024/01/06 09:37:05;;;;;;;5.13;4.13;;;6.10;56.10;;;;;;5116790;28;20102;-77
2024/01/06 09:39:31;;;;;;;4.70;3.60;;;6.10;56.10;;;;;;5118139;28;20104;-75
2024/01/06 09:41:57;;;;;;;4.70;3.60;;;6.10;56.10;;;;;;5116809;28;20035;-75
2024/01/06 09:44:24;;;;;;;4.97;3.80;;;6.10;56.10;;;;;;5117944;28;20114;-75
2024/01/06 09:46:50;;;;;;;3.85;3.30;;;6.10;56.10;;;;;;5119291;27;20046;-75
2024/01/06 09:49:22;;;;;;;4.88;3.63;;;6.10;56.10;;;;;;5120040;27;20069;-76
2024/01/06 09:51:51;;;;;;;4.25;3.47;;;6.10;56.00;;;;;;5138429;27;20488;-75
2024/01/06 09:54:23;;;;;;;4.03;3.50;;;6.20;56.10;;;;;;5138428;27;20071;-75
2024/01/06 09:56:49;;;;;;;4.72;3.78;;;6.20;56.10;;;;;;5138450;27;20110;-75
2024/01/06 09:59:15;;;;;;;4.10;3.38;;;6.30;56.00;;;;;;5137705;27;20083;-74
2024/01/06 10:01:42;;;;;;;4.57;3.33;;;6.30;56.00;;;;;;5120328;27;20081;-77
2024/01/06 10:04:08;;;;;;;4.30;3.40;;;6.30;56.50;;;;;;5138269;27;20046;-76
2024/01/06 10:06:34;;;;;;;4.07;3.50;;;6.40;55.90;;;;;;5119626;27;20125;-75
2024/01/06 10:09:00;;;;;;;4.10;3.40;;;6.40;56.30;;;;;;5119756;27;20027;-75
2024/01/06 10:11:26;;;;;;;5.38;3.22;;;6.40;55.60;;;;;;5137721;27;20380;-76
2024/01/06 10:13:53;;;;;;;5.55;3.20;;;6.40;55.70;;;;;;5119452;27;20039;-74
2024/01/06 10:16:19;;;;;;;3.75;3.00;;;6.40;55.70;;;;;;5116838;28;20039;-75
2024/01/06 10:18:45;;;;;;;3.78;2.95;;;6.40;55.60;;;;;;5115960;28;20381;-75
2024/01/06 10:21:12;;;;;;;3.70;3.05;;;6.50;55.70;;;;;;5117254;28;20027;-76
2024/01/06 10:23:37;;;;;;;3.63;3.22;;;6.50;55.60;;;;;;5117043;28;20431;-74
2024/01/06 10:26:03;;;;;;;4.40;3.20;;;6.50;55.60;;;;;;5117273;28;20031;-76
2024/01/06 10:28:30;;;;;;;5.00;3.40;;;6.50;55.60;;;;;;5116872;28;20098;-75
2024/01/06 10:30:56;;;;;;;4.30;3.53;;;6.60;55.60;;;;;;5117068;27;20032;-75
2024/01/06 10:33:26;;;;;;;5.15;3.58;;;6.50;55.50;;;;;;5115626;28;20036;-75
2024/01/06 10:35:54;;;;;;;4.40;3.60;;;6.50;55.50;;;;;;5115916;28;20031;-75
2024/01/06 10:38:20;;;;;;;4.75;3.40;;;6.60;55.60;;;;;;5115448;28;20051;-74
2024/01/06 10:41:06;;;;;;;3.85;3.22;;;6.60;56.20;;;;;;5116904;28;20055;-74
2024/01/06 10:43:38;;;;;;;4.78;3.60;;;6.60;55.50;;;;;;5117039;28;20351;-75
2024/01/06 10:46:04;;;;;;;4.35;3.28;;;6.60;55.50;;;;;;5095852;27;20096;-76
2024/01/06 10:48:33;;;;;;;4.43;3.35;;;6.60;55.50;;;;;;5118246;27;20027;-74
2024/01/06 10:50:59;;;;;;;4.30;3.63;;;6.60;55.40;;;;;;5136999;27;20111;-76
2024/01/06 10:53:27;;;;;;;4.50;3.30;;;6.70;55.50;;;;;;5136762;27;20027;-75
2024/01/06 10:55:53;;;;;;;5.38;3.55;;;6.70;55.50;;;;;;5118605;27;20109;-75
2024/01/06 10:58:19;;;;;;;4.60;3.35;;;6.70;55.50;;;;;;5118627;27;20031;-75
2024/01/06 11:00:47;;;;;;;4.53;3.47;;;6.60;55.50;;;;;;5137103;27;20376;-75
2024/01/06 11:03:14;;;;;;;4.65;3.65;;;6.70;55.60;;;;;;5136927;27;20077;-76
2024/01/06 11:05:43;;;;;;;4.22;3.40;;;6.60;55.50;;;;;;5118298;27;20054;-76
2024/01/06 11:08:10;;;;;;;4.38;3.17;;;6.60;55.60;;;;;;5136845;27;20023;-75
2024/01/06 11:10:37;;;;;;;4.97;3.58;;;6.70;55.60;;;;;;5118338;27;20019;-75
2024/01/06 11:13:14;;;;;;;4.97;3.47;;;6.70;55.70;;;;;;5136939;27;20118;-75
2024/01/06 11:15:43;;;;;;;4.30;3.45;;;6.70;55.70;;;;;;5114693;28;20072;-75
2024/01/06 11:18:29;;;;;;;4.70;3.67;;;6.70;55.70;;;;;;5114899;28;20084;-75
2024/01/06 11:21:21;;;;;;;5.25;3.60;;;6.70;55.70;;;;;;5115957;27;20024;-74
2024/01/06 11:24:06;;;;;;;3.70;3.30;;;6.70;55.60;;;;;;5109394;28;20489;-75
2024/01/06 11:26:32;;;;;;;4.38;3.45;;;6.70;55.70;;;;;;5114667;28;20027;-76
2024/01/06 11:29:00;;;;;;;4.65;3.33;;;6.80;55.80;;;;;;5129790;27;20026;-74
2024/01/06 11:31:32;;;;;;;3.80;3.20;;;6.70;55.70;;;;;;5116500;28;20342;-75
2024/01/06 11:34:21;;;;;;;4.95;3.10;;;6.80;55.80;;;;;;5115769;28;20119;-76
2024/01/06 11:36:50;;;;;;;4.00;3.40;;;6.80;55.80;;;;;;5114547;28;20031;-75
2024/01/06 11:39:40;;;;;;;3.33;3.03;;;6.80;55.80;;;;;;5114322;28;20346;-77
2024/01/06 11:42:09;;;;;;;4.43;3.30;;;6.80;55.80;;;;;;5115653;28;20050;-74
2024/01/06 11:44:38;;;;;;;4.38;3.50;;;6.80;55.80;;;;;;5114243;28;20069;-75
2024/01/06 11:47:05;;;;;;;3.90;3.10;;;6.90;55.90;;;;;;5115194;28;20397;-75
2024/01/06 11:49:31;;;;;;;3.70;3.17;;;6.90;55.90;;;;;;5114210;28;20051;-75
2024/01/06 11:52:00;;;;;;;4.93;3.70;;;6.90;55.90;;;;;;5115291;28;20369;-75
2024/01/06 11:54:25;;;;;;;3.50;3.17;;;7.00;56.00;;;;;;5115464;28;20588;-75
2024/01/06 11:56:55;;;;;;;3.40;3.10;;;7.00;56.00;;;;;;5115406;28;20106;-75
2024/01/06 11:59:21;;;;;;;4.45;3.38;;;7.00;56.00;;;;;;5128413;27;20030;-76
2024/01/06 12:01:47;;;;;;;4.25;3.20;;;7.00;56.00;;;;;;5135467;27;20023;-75
2024/01/06 12:04:17;;;;;;;5.00;3.53;;;7.00;55.90;;;;;;5135507;27;20569;-77
2024/01/06 12:06:43;;;;;;;4.15;3.40;;;7.00;56.00;;;;;;5135474;27;20043;-77
2024/01/06 12:09:15;;;;;;;4.22;3.80;;;7.00;56.00;;;;;;5117110;27;20066;-75
2024/01/06 12:11:44;;;;;;;5.28;3.40;;;7.00;56.00;;;;;;5135473;27;20023;-75
2024/01/06 12:14:11;;;;;;;3.88;3.38;;;7.00;56.10;;;;;;5135375;27;20038;-75
2024/01/06 12:16:37;;;;;;;4.47;3.22;;;7.00;56.10;;;;;;5135250;27;20077;-75
2024/01/06 12:19:03;;;;;;;4.35;3.13;;;7.00;56.10;;;;;;5116641;27;20027;-75
2024/01/06 12:21:31;;;;;;;4.15;3.22;;;7.10;56.20;;;;;;5117042;27;20114;-75
2024/01/06 12:24:16;;;;;;;3.70;3.13;;;7.10;56.20;;;;;;5116946;27;20031;-76
2024/01/06 12:26:42;;;;;;;;;;;7.00;56.20;;;;;;5135329;27;20031;-76
2024/01/06 12:29:08;;;;;;;3.55;3.20;;;7.00;56.10;;;;;;5123532;27;19915;-77
2024/01/06 12:31:34;;;;;;;3.97;3.47;;;7.00;56.20;;;;;;5114630;28;20058;-76
2024/01/06 12:34:00;;;;;;;3.75;3.20;;;7.10;56.30;;;;;;5113393;28;20066;-76
2024/01/06 12:36:26;;;;;;;4.32;3.47;;;7.00;56.30;;;;;;5114501;28;20019;-74
2024/01/06 12:38:52;;;;;;;3.72;3.38;;;7.00;56.30;;;;;;5113064;28;20383;-77
2024/01/06 12:41:18;;;;;;;5.07;4.00;;;7.00;56.40;;;;;;5113257;28;20051;-76
2024/01/06 12:43:43;;;;;;;5.13;3.70;;;7.00;56.50;;;;;;5113054;28;20070;-76
2024/01/06 12:46:09;;;;;;;4.18;3.60;;;7.00;56.50;;;;;;5114489;28;20346;-76
2024/01/06 12:48:35;;;;;;;4.47;3.55;;;7.00;56.60;;;;;;5114288;28;20020;-76
2024/01/06 12:51:01;;;;;;;5.50;4.22;;;7.00;56.60;;;;;;5113092;28;20026;-76